Time;durP1;ratioP1;P1;durP2;ratioP2;P2;SDS_P1;SDS_P2;PMS_P1;PMS_P2;Temp;Humidity;BMP_temperature;BMP_pressure;BME280_temperature;BME280_humidity;BME280_pressure;Samples;Min_cycle;Max_cycle;Signal;HPM_P1;HPM_P2
2021/08/10 00:01:35;;;;;;;;;;;;;;;14.28;68.11;96767.75;4971906;28;19967;-83
2021/08/10 00:04:01;;;;;;;;;;;;;;;14.25;67.81;96765.56;4965133;28;20420;-83
2021/08/10 00:06:27;;;;;;;;;;;;;;;14.20;68.16;96766.28;4966575;28;20438;-83
2021/08/10 00:08:53;;;;;;;;;;;;;;;14.18;68.30;96764.91;4944022;29;20061;-82
2021/08/10 00:11:19;;;;;;;;;;;;;;;14.14;68.23;96761.91;4966658;28;20038;-82
2021/08/10 00:13:45;;;;;;;;;;;;;;;14.12;68.40;96765.84;4949908;28;20394;-82
2021/08/10 00:16:11;;;;;;;;;;;;;;;14.05;68.79;96758.06;4959717;28;20354;-83
2021/08/10 00:18:37;;;;;;;;;;;;;;;14.01;68.67;96759.53;4947979;28;20061;-83
2021/08/10 00:21:03;;;;;;;;;;;;;;;13.98;68.96;96754.72;4951607;29;20455;-86
2021/08/10 00:23:28;;;;;;;;;;;;;;;13.97;69.09;96753.94;4965886;28;19963;-83
2021/08/10 00:25:54;;;;;;;;;;;;;;;13.96;68.99;96749.69;4929331;29;20475;-83
2021/08/10 00:28:20;;;;;;;;;;;;;;;13.96;69.52;96757.59;4940427;29;19978;-84
2021/08/10 00:30:46;;;;;;;;;;;;;;;13.96;69.17;96759.41;4947498;29;19967;-83
2021/08/10 00:33:13;;;;;;;;;;;;;;;13.93;69.21;96752.00;4953084;28;19991;-84
2021/08/10 00:35:39;;;;;;;;;;;;;;;13.92;69.31;96756.47;4937065;29;20375;-84
2021/08/10 00:38:05;;;;;;;;;;;;;;;13.90;69.38;96758.53;4932604;29;20000;-84
2021/08/10 00:40:31;;;;;;;;;;;;;;;13.88;69.31;96760.59;4945134;29;19974;-83
2021/08/10 00:42:57;;;;;;;;;;;;;;;13.86;69.50;96760.03;4955791;29;19990;-84
2021/08/10 00:45:23;;;;;;;;;;;;;;;13.84;69.56;96759.44;4945192;29;20420;-84
2021/08/10 00:47:49;;;;;;;;;;;;;;;13.80;69.83;96756.47;4945788;29;20017;-84
2021/08/10 00:50:15;;;;;;;;;;;;;;;13.79;69.22;96752.22;4942410;29;19978;-84
2021/08/10 00:52:41;;;;;;;;;;;;;;;13.77;69.28;96749.03;4925440;29;20428;-84
2021/08/10 00:55:08;;;;;;;;;;;;;;;13.76;69.94;96755.31;4940657;29;19990;-84
2021/08/10 00:57:34;;;;;;;;;;;;;;;13.74;69.89;96749.47;4947001;29;20428;-84
2021/08/10 01:00:00;;;;;;;;;;;;;;;13.71;70.37;96749.94;4946719;29;20357;-84
2021/08/10 01:02:27;;;;;;;;;;;;;;;13.68;69.67;96750.41;4918422;29;19967;-84
2021/08/10 01:04:52;;;;;;;;;;;;;;;13.67;69.87;96745.34;4929016;29;19971;-84
2021/08/10 01:07:18;;;;;;;;;;;;;;;13.65;70.32;96753.50;4949286;29;19985;-83
2021/08/10 01:09:50;;;;;;;;;;;;;;;13.64;70.16;96751.09;4947759;29;20394;-83
2021/08/10 01:12:18;;;;;;;;;;;;;;;13.64;70.51;96753.72;4953871;29;19989;-82
2021/08/10 01:14:47;;;;;;;;;;;;;;;13.62;70.47;96750.53;4943377;29;19986;-82
2021/08/10 01:17:34;;;;;;;;;;;;;;;13.59;70.77;96746.50;4945823;29;19967;-82
2021/08/10 01:20:19;;;;;;;;;;;;;;;13.57;70.40;96751.22;4950330;29;19974;-82
2021/08/10 01:22:47;;;;;;;;;;;;;;;13.55;70.38;96751.44;4946479;29;19978;-81
2021/08/10 01:25:32;;;;;;;;;;;;;;;13.54;70.67;96747.22;4924213;28;20075;-84
2021/08/10 01:28:10;;;;;;;;;;;;;;;13.52;70.89;96740.53;4954516;29;19971;-82
2021/08/10 01:30:41;;;;;;;;;;;;;;;13.49;71.65;96736.53;4946130;29;19969;-82
2021/08/10 01:33:07;;;;;;;;;;;;;;;13.48;70.82;96734.13;4945835;29;19963;-83
2021/08/10 01:35:35;;;;;;;;;;;;;;;13.47;70.69;96730.69;4949971;29;20428;-83
2021/08/10 01:38:02;;;;;;;;;;;;;;;13.46;70.97;96731.75;4950075;29;19967;-83
2021/08/10 01:40:29;;;;;;;;;;;;;;;13.45;70.97;96735.38;4963825;28;19967;-82
2021/08/10 01:42:56;;;;;;;;;;;;;;;13.45;71.41;96734.59;4946672;29;19966;-81
2021/08/10 01:45:22;;;;;;;;;;;;;;;13.43;71.35;96726.13;4946199;29;19979;-82
2021/08/10 01:47:49;;;;;;;;;;;;;;;13.39;71.76;96721.28;4957451;29;19971;-81
2021/08/10 01:50:16;;;;;;;;;;;;;;;13.38;71.79;96719.69;4953150;29;20305;-82
2021/08/10 01:52:43;;;;;;;;;;;;;;;13.36;71.80;96721.75;4952308;29;19978;-83
2021/08/10 01:55:10;;;;;;;;;;;;;;;13.35;71.69;96721.97;4945767;29;19982;-80
2021/08/10 01:57:36;;;;;;;;;;;;;;;13.33;71.78;96724.84;4946239;29;20436;-80
2021/08/10 02:00:03;;;;;;;;;;;;;;;13.33;71.76;96718.78;4932697;29;19971;-89
2021/08/10 02:02:31;;;;;;;;;;;;;;;13.32;71.68;96711.91;4952422;29;19971;-88
2021/08/10 02:04:57;;;;;;;;;;;;;;;13.29;72.09;96707.91;4950067;29;19967;-87
2021/08/10 02:07:23;;;;;;;;;;;;;;;13.28;72.70;96716.78;4950261;29;20326;-84
2021/08/10 02:09:49;;;;;;;;;;;;;;;13.25;72.29;96714.63;4946442;29;19971;-81
2021/08/10 02:12:16;;;;;;;;;;;;;;;13.22;72.32;96709.81;4945543;29;19971;-82
2021/08/10 02:14:43;;;;;;;;;;;;;;;13.21;72.27;96705.59;4953832;29;19979;-82
2021/08/10 02:17:12;;;;;;;;;;;;;;;13.18;72.21;96709.44;4953376;29;19963;-82
2021/08/10 02:19:38;;;;;;;;;;;;;;;13.16;71.97;96706.25;4938687;29;20440;-83
2021/08/10 02:22:14;;;;;;;;;;;;;;;13.15;71.95;96715.19;4948184;29;20058;-82
2021/08/10 02:24:49;;;;;;;;;;;;;;;13.13;71.77;96714.59;4937840;29;20002;-83
2021/08/10 02:27:18;;;;;;;;;;;;;;;13.10;71.88;96720.34;4949325;29;19974;-82
2021/08/10 02:29:44;;;;;;;;;;;;;;;13.11;71.99;96721.13;4947124;29;19974;-82
2021/08/10 02:32:12;;;;;;;;;;;;;;;13.09;72.30;96723.19;4949352;29;19974;-82
2021/08/10 02:34:40;;;;;;;;;;;;;;;13.07;72.79;96725.25;4954117;29;19990;-83
2021/08/10 02:37:06;;;;;;;;;;;;;;;13.04;72.81;96729.13;4939264;29;19967;-82
2021/08/10 02:39:34;;;;;;;;;;;;;;;13.02;72.82;96727.75;4947258;29;20431;-82
2021/08/10 02:42:01;;;;;;;;;;;;;;;12.99;73.03;96732.44;4956441;29;20346;-82
2021/08/10 02:44:28;;;;;;;;;;;;;;;12.96;73.11;96724.19;4944984;29;19974;-82
2021/08/10 02:46:53;;;;;;;;;;;;;;;12.94;72.87;96728.88;4956535;29;20438;-83
2021/08/10 02:49:19;;;;;;;;;;;;;;;12.91;72.91;96729.31;4967658;28;19970;-83
2021/08/10 02:51:45;;;;;;;;;;;;;;;12.89;72.83;96719.03;4945661;29;19975;-83
2021/08/10 02:54:12;;;;;;;;;;;;;;;12.88;73.28;96719.25;4952417;29;20041;-82
2021/08/10 02:56:45;;;;;;;;;;;;;;;12.86;73.16;96708.94;4947129;29;19968;-82
2021/08/10 02:59:20;;;;;;;;;;;;;;;12.86;73.34;96713.41;4953208;29;20350;-82
2021/08/10 03:01:51;;;;;;;;;;;;;;;12.87;73.10;96715.00;4937339;29;19967;-82
2021/08/10 03:04:19;;;;;;;;;;;;;;;12.87;73.47;96713.19;4953315;29;19964;-83
2021/08/10 03:06:45;;;;;;;;;;;;;;;12.87;73.31;96717.63;4952654;29;19971;-82
2021/08/10 03:09:11;;;;;;;;;;;;;;;12.86;73.33;96710.78;4946279;29;19971;-83
2021/08/10 03:11:39;;;;;;;;;;;;;;;12.85;73.63;96711.78;4942861;29;19966;-83
2021/08/10 03:14:06;;;;;;;;;;;;;;;12.83;74.04;96709.41;4945882;29;20363;-80
2021/08/10 03:16:33;;;;;;;;;;;;;;;12.80;73.99;96717.75;4940260;29;19963;-83
2021/08/10 03:19:00;;;;;;;;;;;;;;;12.77;73.71;96716.38;4952722;29;19974;-80
2021/08/10 03:21:28;;;;;;;;;;;;;;;12.75;73.49;96720.25;4950439;29;19963;-83
2021/08/10 03:23:54;;;;;;;;;;;;;;;12.74;73.57;96722.06;4947265;29;19970;-80
2021/08/10 03:26:22;;;;;;;;;;;;;;;12.72;73.45;96721.50;4940755;29;19995;-80
2021/08/10 03:28:49;;;;;;;;;;;;;;;12.71;73.29;96724.38;4947180;29;19971;-80
2021/08/10 03:31:15;;;;;;;;;;;;;;;12.70;73.38;96723.53;4953059;29;19963;-82
2021/08/10 03:33:42;;;;;;;;;;;;;;;12.69;73.24;96723.78;4946755;29;19967;-83
2021/08/10 03:36:08;;;;;;;;;;;;;;;12.67;73.59;96726.63;4941080;29;20416;-83
2021/08/10 03:38:35;;;;;;;;;;;;;;;12.65;73.76;96720.00;4948708;29;19961;-83
2021/08/10 03:41:02;;;;;;;;;;;;;;;12.63;73.80;96719.41;4949235;29;19974;-79
2021/08/10 03:43:28;;;;;;;;;;;;;;;12.59;73.64;96708.53;4946187;29;19963;-79
2021/08/10 03:45:55;;;;;;;;;;;;;;;12.59;73.85;96706.69;4923596;29;19978;-79
2021/08/10 03:48:22;;;;;;;;;;;;;;;12.59;73.70;96713.78;4945298;28;19990;-80
2021/08/10 03:50:48;;;;;;;;;;;;;;;12.58;73.61;96707.72;4946033;29;19967;-79
2021/08/10 03:53:14;;;;;;;;;;;;;;;12.57;73.61;96708.75;4945942;29;19978;-79
2021/08/10 03:55:40;;;;;;;;;;;;;;;12.57;73.96;96718.47;4945615;29;19983;-81
2021/08/10 03:58:07;;;;;;;;;;;;;;;12.55;74.98;96718.69;4944853;29;19970;-80
2021/08/10 04:00:35;;;;;;;;;;;;;;;12.54;74.40;96716.31;4961926;28;19967;-80
2021/08/10 04:03:01;;;;;;;;;;;;;;;12.53;74.73;96714.69;4945172;29;19974;-80
2021/08/10 04:05:27;;;;;;;;;;;;;;;12.52;75.11;96720.97;4952354;29;19971;-81
2021/08/10 04:07:53;;;;;;;;;;;;;;;12.51;74.63;96720.16;4942405;29;20339;-81
2021/08/10 04:10:19;;;;;;;;;;;;;;;12.51;75.12;96704.38;4962482;28;19971;-80
2021/08/10 04:12:45;;;;;;;;;;;;;;;12.52;74.98;96720.97;4946440;29;19978;-80
2021/08/10 04:15:12;;;;;;;;;;;;;;;12.51;74.91;96719.38;4944435;29;20366;-80
2021/08/10 04:17:39;;;;;;;;;;;;;;;12.51;74.66;96720.16;4941319;29;19963;-80
2021/08/10 04:20:05;;;;;;;;;;;;;;;12.52;75.18;96716.50;4954818;29;19966;-80
2021/08/10 04:22:32;;;;;;;;;;;;;;;12.53;75.62;96726.00;4942937;29;19963;-80
2021/08/10 04:24:58;;;;;;;;;;;;;;;12.53;75.70;96723.38;4926899;29;20002;-80
2021/08/10 04:27:25;;;;;;;;;;;;;;;12.55;75.87;96728.41;4950828;29;20347;-80
2021/08/10 04:29:51;;;;;;;;;;;;;;;12.56;75.84;96733.47;4944849;28;19971;-80
2021/08/10 04:32:17;;;;;;;;;;;;;;;12.58;76.08;96735.88;4959035;28;19974;-80
2021/08/10 04:34:42;;;;;;;;;;;;;;;12.61;75.86;96739.88;4941905;29;19983;-79
2021/08/10 04:37:08;;;;;;;;;;;;;;;12.61;76.37;96732.78;4950636;29;20014;-79
2021/08/10 04:39:34;;;;;;;;;;;;;;;12.61;78.71;96730.16;4945447;29;20014;-78
2021/08/10 04:42:00;;;;;;;;;;;;;;;12.54;75.80;96735.50;4947858;28;20054;-79
2021/08/10 04:44:26;;;;;;;;;;;;;;;12.54;76.22;96746.03;4929727;29;19966;-78
2021/08/10 04:46:52;;;;;;;;;;;;;;;12.55;76.61;96752.09;4945474;29;19964;-79
2021/08/10 04:49:18;;;;;;;;;;;;;;;12.58;76.92;96756.94;4947601;29;19967;-78
2021/08/10 04:51:44;;;;;;;;;;;;;;;12.63;76.25;96758.88;4936073;29;19983;-79
2021/08/10 04:54:16;;;;;;;;;;;;;;;12.65;76.27;96757.63;4942931;29;19998;-79
2021/08/10 04:56:42;;;;;;;;;;;;;;;12.69;76.54;96760.63;4925249;29;20335;-79
2021/08/10 04:59:08;;;;;;;;;;;;;;;12.73;77.48;96757.31;4952369;29;19963;-78
2021/08/10 05:01:33;;;;;;;;;;;;;;;12.76;76.94;96754.22;4946603;28;19974;-78
2021/08/10 05:03:59;;;;;;;;;;;;;;;12.81;76.77;96750.94;4924421;29;20058;-79
2021/08/10 05:06:25;;;;;;;;;;;;;;;12.85;76.68;96749.47;4945459;29;19967;-79
2021/08/10 05:08:51;;;;;;;;;;;;;;;12.92;76.71;96758.06;4946796;29;20013;-80
2021/08/10 05:11:17;;;;;;;;;;;;;;;12.97;76.90;96762.66;4940700;29;20398;-79
2021/08/10 05:13:43;;;;;;;;;;;;;;;13.03;76.96;96761.75;4940839;29;20062;-78
2021/08/10 05:16:08;;;;;;;;;;;;;;;13.07;76.47;96764.75;4946927;29;19983;-79
2021/08/10 05:18:35;;;;;;;;;;;;;;;13.12;76.40;96764.84;4946563;29;20388;-80
2021/08/10 05:21:00;;;;;;;;;;;;;;;13.16;77.58;96771.28;4928431;29;19979;-83
2021/08/10 05:23:26;;;;;;;;;;;;;;;13.19;77.07;96765.56;4954186;28;19962;-84
2021/08/10 05:25:52;;;;;;;;;;;;;;;13.24;77.17;96768.31;4954180;28;20490;-83
2021/08/10 05:28:18;;;;;;;;;;;;;;;13.27;76.88;96759.97;4947489;28;19978;-83
2021/08/10 05:30:44;;;;;;;;;;;;;;;13.34;76.72;96765.16;4951859;29;20047;-83
2021/08/10 05:33:10;;;;;;;;;;;;;;;13.40;76.87;96764.25;4948458;29;20053;-83
2021/08/10 05:35:36;;;;;;;;;;;;;;;13.45;76.93;96771.47;4961740;28;20081;-83
2021/08/10 05:38:02;;;;;;;;;;;;;;;13.49;76.56;96770.00;4941405;29;20022;-83
2021/08/10 05:40:28;;;;;;;;;;;;;;;13.52;76.73;96772.97;4929305;29;19967;-83
2021/08/10 05:42:54;;;;;;;;;;;;;;;13.56;77.20;96778.56;4950360;29;19967;-83
2021/08/10 05:45:20;;;;;;;;;;;;;;;13.59;76.64;96772.88;4947754;29;20070;-83
2021/08/10 05:47:46;;;;;;;;;;;;;;;13.63;76.91;96775.81;4937712;29;19967;-83
2021/08/10 05:50:12;;;;;;;;;;;;;;;13.66;77.35;96770.09;4943595;29;19977;-81
2021/08/10 05:52:37;;;;;;;;;;;;;;;13.69;76.74;96778.38;4955043;29;20018;-81
2021/08/10 05:55:04;;;;;;;;;;;;;;;13.73;76.96;96773.41;4947003;29;19997;-81
2021/08/10 05:57:30;;;;;;;;;;;;;;;13.77;77.76;96770.13;4950693;29;19963;-81
2021/08/10 05:59:55;;;;;;;;;;;;;;;13.82;78.07;96777.34;4955127;29;20057;-81
2021/08/10 06:02:21;;;;;;;;;;;;;;;13.83;76.94;96771.00;4938625;29;20026;-81
2021/08/10 06:04:47;;;;;;;;;;;;;;;13.79;75.76;96769.88;4954176;29;19971;-81
2021/08/10 06:07:23;;;;;;;;;;;;;;;13.75;77.44;96764.28;4949311;29;19990;-80
2021/08/10 06:09:49;;;;;;;;;;;;;;;13.73;76.65;96770.78;4946484;29;20446;-81
2021/08/10 06:12:15;;;;;;;;;;;;;;;13.72;77.50;96762.09;4939512;29;19963;-81
2021/08/10 06:14:41;;;;;;;;;;;;;;;13.73;78.18;96771.59;4951551;29;19990;-82
2021/08/10 06:17:07;;;;;;;;;;;;;;;13.76;77.63;96771.13;4950937;29;19974;-82
2021/08/10 06:19:33;;;;;;;;;;;;;;;13.80;78.25;96771.50;4930080;29;20390;-80
2021/08/10 06:21:59;;;;;;;;;;;;;;;13.85;78.08;96773.44;4958296;29;19970;-82
2021/08/10 06:24:27;;;;;;;;;;;;;;;13.95;78.01;96774.44;4946521;28;19967;-80
2021/08/10 06:26:53;;;;;;;;;;;;;;;13.98;76.80;96766.09;4949186;29;19975;-85
2021/08/10 06:29:19;;;;;;;;;;;;;;;14.00;77.01;96765.84;4943120;28;19967;-85
2021/08/10 06:31:45;;;;;;;;;;;;;;;14.07;78.03;96777.09;4933122;28;19966;-81
2021/08/10 06:34:11;;;;;;;;;;;;;;;14.12;77.41;96774.53;4965850;28;20002;-82
2021/08/10 06:36:39;;;;;;;;;;;;;;;14.20;76.65;96781.31;4958551;28;19971;-82
2021/08/10 06:39:06;;;;;;;;;;;;;;;14.36;76.85;96772.66;4953820;29;19990;-82
2021/08/10 06:41:31;;;;;;;;;;;;;;;14.53;76.31;96766.63;4951376;28;19974;-84
2021/08/10 06:43:57;;;;;;;;;;;;;;;14.61;76.97;96767.13;4969739;28;20017;-85
2021/08/10 06:46:24;;;;;;;;;;;;;;;14.75;75.52;96772.91;4934290;28;19977;-85
2021/08/10 06:48:50;;;;;;;;;;;;;;;14.85;76.28;96768.84;4947343;28;19970;-85
2021/08/10 06:51:16;;;;;;;;;;;;;;;14.99;75.62;96768.31;4951863;28;19985;-85
2021/08/10 06:53:42;;;;;;;;;;;;;;;15.15;75.05;96763.28;4959306;28;19970;-85
2021/08/10 06:56:08;;;;;;;;;;;;;;;15.37;74.67;96766.81;4951288;29;19990;-85
2021/08/10 06:58:34;;;;;;;;;;;;;;;15.69;74.27;96768.09;4973049;28;20442;-85
2021/08/10 07:01:00;;;;;;;;;;;;;;;15.86;72.52;96757.53;4965429;28;19974;-85
2021/08/10 07:03:26;;;;;;;;;;;;;;;15.92;71.67;96753.91;4946648;28;19966;-84
2021/08/10 07:05:52;;;;;;;;;;;;;;;15.92;72.65;96757.34;4949093;28;19973;-85
2021/08/10 07:08:18;;;;;;;;;;;;;;;15.99;72.98;96747.38;4966725;28;20452;-85
2021/08/10 07:10:44;;;;;;;;;;;;;;;16.16;73.63;96763.19;4967642;28;19970;-85
2021/08/10 07:13:10;;;;;;;;;;;;;;;16.46;72.93;96751.38;4973700;28;19975;-85
2021/08/10 07:15:37;;;;;;;;;;;;;;;16.60;71.21;96749.16;4946056;28;19982;-85
2021/08/10 07:18:03;;;;;;;;;;;;;;;16.61;71.66;96756.84;4928768;28;19970;-85
2021/08/10 07:20:29;;;;;;;;;;;;;;;16.58;70.81;96756.53;4959738;28;20053;-85
2021/08/10 07:22:55;;;;;;;;;;;;;;;16.48;70.50;96751.13;4940583;29;20057;-85
2021/08/10 07:25:21;;;;;;;;;;;;;;;16.40;70.85;96769.06;4956426;28;19990;-85
2021/08/10 07:27:48;;;;;;;;;;;;;;;16.47;70.97;96763.56;4958421;28;20442;-84
2021/08/10 07:30:14;;;;;;;;;;;;;;;16.62;70.43;96765.59;4964374;28;19962;-84
2021/08/10 07:32:40;;;;;;;;;;;;;;;16.67;69.86;96762.19;4931683;29;20343;-82
2021/08/10 07:35:08;;;;;;;;;;;;;;;16.68;69.86;96756.66;4929654;28;19990;-81
2021/08/10 07:37:38;;;;;;;;;;;;;;;16.64;69.16;96756.34;4927093;29;19967;-82
2021/08/10 07:40:04;;;;;;;;;;;;;;;16.58;69.57;96753.88;4939275;29;19967;-82
2021/08/10 07:42:30;;;;;;;;;;;;;;;16.60;69.83;96749.16;4954743;28;19970;-83
2021/08/10 07:44:56;;;;;;;;;;;;;;;16.56;69.94;96745.41;4928400;28;19977;-82
2021/08/10 07:47:22;;;;;;;;;;;;;;;16.54;69.90;96737.69;4932806;29;19971;-82
2021/08/10 07:49:48;;;;;;;;;;;;;;;16.60;70.63;96736.69;4957397;28;20057;-82
2021/08/10 07:52:14;;;;;;;;;;;;;;;16.66;70.46;96740.22;4939476;29;20320;-82
2021/08/10 07:54:39;;;;;;;;;;;;;;;16.79;71.32;96745.09;4951395;28;20415;-83
2021/08/10 07:57:05;;;;;;;;;;;;;;;16.90;69.49;96730.13;4949298;29;19975;-83
2021/08/10 07:59:31;;;;;;;;;;;;;;;16.97;70.03;96743.19;4941714;28;20460;-82
2021/08/10 08:01:57;;;;;;;;;;;;;;;17.07;68.98;96745.91;4955105;28;19975;-82
2021/08/10 08:04:23;;;;;;;;;;;;;;;17.14;69.41;96743.06;4931342;29;20018;-83
2021/08/10 08:06:49;;;;;;;;;;;;;;;17.17;69.15;96737.25;4940652;29;19963;-82
2021/08/10 08:09:15;;;;;;;;;;;;;;;17.19;70.25;96735.16;4964128;28;20318;-82
2021/08/10 08:11:41;;;;;;;;;;;;;;;17.23;70.93;96736.25;4962176;28;20025;-82
2021/08/10 08:14:07;;;;;;;;;;;;;;;17.31;71.01;96733.13;4928920;29;20419;-83
2021/08/10 08:16:33;;;;;;;;;;;;;;;17.43;70.54;96728.47;4947581;29;19987;-82
2021/08/10 08:18:59;;;;;;;;;;;;;;;17.51;70.05;96726.38;4941695;28;19973;-82
2021/08/10 08:21:25;;;;;;;;;;;;;;;17.56;69.79;96713.16;4969527;28;20017;-81
2021/08/10 08:23:51;;;;;;;;;;;;;;;17.64;70.36;96723.31;4931010;28;19978;-82
2021/08/10 08:26:18;;;;;;;;;;;;;;;17.72;70.01;96716.69;4957533;28;19990;-81
2021/08/10 08:28:44;;;;;;;;;;;;;;;17.79;69.51;96717.28;4969115;28;19970;-82
2021/08/10 08:31:10;;;;;;;;;;;;;;;17.82;69.15;96717.56;4950848;28;19974;-82
2021/08/10 08:33:36;;;;;;;;;;;;;;;17.85;69.25;96722.38;4966799;28;20405;-82
2021/08/10 08:36:02;;;;;;;;;;;;;;;17.87;69.58;96714.16;4945755;28;19982;-84
2021/08/10 08:38:28;;;;;;;;;;;;;;;17.93;69.81;96713.16;4964893;28;20014;-85
2021/08/10 08:40:54;;;;;;;;;;;;;;;17.99;69.38;96720.03;4967731;28;20320;-84
2021/08/10 08:43:22;;;;;;;;;;;;;;;18.12;69.21;96712.66;4949168;28;19970;-84
2021/08/10 08:45:48;;;;;;;;;;;;;;;18.24;70.35;96707.94;4958567;28;19967;-83
2021/08/10 08:48:15;;;;;;;;;;;;;;;18.44;70.43;96705.34;4967218;28;19966;-83
2021/08/10 08:50:42;;;;;;;;;;;;;;;18.67;68.83;96706.75;4933951;28;19972;-83
2021/08/10 08:53:11;;;;;;;;;;;;;;;18.92;68.46;96704.41;4945739;28;19966;-83
2021/08/10 08:55:37;;;;;;;;;;;;;;;19.12;68.23;96704.41;4940452;28;20435;-83
2021/08/10 08:58:03;;;;;;;;;;;;;;;19.30;66.83;96699.59;4948596;29;19982;-83
2021/08/10 09:00:29;;;;;;;;;;;;;;;19.48;64.76;96691.09;4969878;28;20024;-83
2021/08/10 09:02:55;;;;;;;;;;;;;;;19.68;65.01;96699.03;4931497;28;19971;-83
2021/08/10 09:05:21;;;;;;;;;;;;;;;19.93;65.10;96712.56;4957035;28;20435;-83
2021/08/10 09:07:47;;;;;;;;;;;;;;;20.10;64.06;96704.25;4934397;29;19975;-83
2021/08/10 09:10:16;;;;;;;;;;;;;;;20.15;62.92;96693.59;4940886;28;20366;-84
2021/08/10 09:12:42;;;;;;;;;;;;;;;20.20;61.84;96685.56;4940659;28;19978;-84
2021/08/10 09:15:08;;;;;;;;;;;;;;;20.33;62.25;96692.97;4930437;28;20443;-84
2021/08/10 09:17:34;;;;;;;;;;;;;;;20.56;62.82;96696.06;4963929;28;19970;-83
2021/08/10 09:20:03;;;;;;;;;;;;;;;20.74;62.16;96697.28;4943312;29;20339;-83
2021/08/10 09:22:33;;;;;;;;;;;;;;;20.87;61.44;96684.13;4936358;28;19966;-83
2021/08/10 09:25:02;;;;;;;;;;;;;;;21.02;57.15;96653.06;4924871;28;19995;-84
2021/08/10 09:27:31;;;;;;;;;;;;;;;21.12;57.01;96646.88;4941246;28;20438;-83
2021/08/10 09:29:58;;;;;;;;;;;;;;;21.18;58.26;96667.88;4948199;28;19975;-84
2021/08/10 09:32:24;;;;;;;;;;;;;;;21.22;56.70;96652.13;4931096;28;19970;-84
2021/08/10 09:35:10;;;;;;;;;;;;;;;21.28;54.74;96637.66;4929047;29;20416;-83
2021/08/10 09:37:36;;;;;;;;;;;;;;;21.37;56.45;96659.97;4938602;29;19985;-84
2021/08/10 09:40:24;;;;;;;;;;;;;;;21.47;55.26;96654.56;4940971;28;19962;-83
2021/08/10 09:42:50;;;;;;;;;;;;;;;21.52;54.00;96640.38;4964742;28;19970;-83
2021/08/10 09:45:16;;;;;;;;;;;;;;;21.63;55.11;96651.75;4956617;28;20017;-83
2021/08/10 09:47:42;;;;;;;;;;;;;;;21.71;56.74;96672.44;4945098;29;19971;-83
2021/08/10 09:50:16;;;;;;;;;;;;;;;21.79;53.86;96649.69;4971912;28;19971;-84
2021/08/10 09:52:42;;;;;;;;;;;;;;;21.84;53.16;96644.31;4933471;28;19966;-83
2021/08/10 09:55:09;;;;;;;;;;;;;;;21.90;54.63;96669.84;4947965;28;19987;-84
2021/08/10 09:57:35;;;;;;;;;;;;;;;22.02;53.59;96653.41;4949366;28;19966;-83
2021/08/10 10:00:02;;;;;;;;;;;;;;;22.20;53.83;96659.88;4965431;28;20422;-83
2021/08/10 10:02:28;;;;;;;;;;;;;;;22.34;52.44;96644.72;4933044;29;20419;-84
2021/08/10 10:04:55;;;;;;;;;;;;;;;22.63;53.28;96651.81;4953751;28;19975;-83
2021/08/10 10:07:22;;;;;;;;;;;;;;;22.90;52.08;96633.19;4926264;29;19974;-83
2021/08/10 10:09:48;;;;;;;;;;;;;;;23.10;49.28;96620.63;4952155;29;19982;-83
2021/08/10 10:12:15;;;;;;;;;;;;;;;23.24;52.55;96642.03;4971195;28;20430;-84
2021/08/10 10:14:44;;;;;;;;;;;;;;;23.25;53.51;96660.47;4947124;28;19973;-84
2021/08/10 10:17:11;;;;;;;;;;;;;;;23.25;52.11;96647.09;4960354;28;19978;-85
2021/08/10 10:19:38;;;;;;;;;;;;;;;23.29;52.41;96647.31;4950166;29;19990;-84
2021/08/10 10:22:05;;;;;;;;;;;;;;;23.32;51.08;96629.88;4940355;28;19967;-84
2021/08/10 10:24:41;;;;;;;;;;;;;;;23.38;50.18;96629.47;4963747;28;20473;-86
2021/08/10 10:27:07;;;;;;;;;;;;;;;23.46;50.08;96636.81;4966021;28;19973;-85
2021/08/10 10:29:33;;;;;;;;;;;;;;;23.50;49.75;96627.09;4944139;28;19973;-84
2021/08/10 10:31:59;;;;;;;;;;;;;;;23.46;49.52;96628.00;4959540;28;19978;-84
2021/08/10 10:34:26;;;;;;;;;;;;;;;23.45;49.98;96629.06;4946940;28;19962;-84
2021/08/10 10:36:52;;;;;;;;;;;;;;;23.51;50.26;96635.94;4935140;29;19982;-83
2021/08/10 10:39:24;;;;;;;;;;;;;;;23.62;50.66;96637.34;4933499;29;19967;-83
2021/08/10 10:41:53;;;;;;;;;;;;;;;23.73;48.99;96621.88;4955286;28;20353;-84
2021/08/10 10:44:39;;;;;;;;;;;;;;;23.78;48.18;96605.72;4931088;28;20343;-84
2021/08/10 10:47:34;;;;;;;;;;;;;;;23.84;49.73;96622.47;4964988;28;19974;-83
2021/08/10 10:50:00;;;;;;;;;;;;;;;23.89;46.70;96606.28;4940936;28;19981;-83
2021/08/10 10:52:27;;;;;;;;;;;;;;;23.95;46.33;96607.78;4929225;28;20025;-84
2021/08/10 10:54:55;;;;;;;;;;;;;;;24.03;49.65;96630.41;4933147;28;19971;-84
2021/08/10 10:57:30;;;;;;;;;;;;;;;24.18;52.28;96648.03;4939625;29;20363;-83
2021/08/10 11:00:08;;;;;;;;;;;;;;;24.30;48.30;96624.97;4932366;28;20346;-83
2021/08/10 11:02:38;;;;;;;;;;;;;;;24.35;48.25;96610.66;4948848;28;19978;-85
2021/08/10 11:05:04;;;;;;;;;;;;;;;24.47;48.66;96616.28;4966902;28;19966;-86
2021/08/10 11:07:36;;;;;;;;;;;;;;;24.69;50.40;96623.59;4974805;28;20009;-85
2021/08/10 11:10:22;;;;;;;;;;;;;;;24.91;45.10;96597.84;4947302;28;19966;-84
2021/08/10 11:12:49;;;;;;;;;;;;;;;25.22;48.85;96626.59;4931844;29;20442;-85
2021/08/10 11:15:16;;;;;;;;;;;;;;;25.48;48.77;96634.81;4940336;28;20324;-85
2021/08/10 11:18:21;;;;;;;;;;;;;;;25.63;46.80;96612.88;4935460;29;19970;-85
2021/08/10 11:20:49;;;;;;;;;;;;;;;25.73;45.79;96615.28;4906428;29;20344;-84
2021/08/10 11:23:22;;;;;;;;;;;;;;;25.56;42.25;96628.69;4881723;29;20004;-84
2021/08/10 11:25:49;;;;;;;;;;;;;;;25.35;44.61;96649.13;4912475;29;20009;-85
2021/08/10 11:28:35;;;;;;;;;;;;;;;25.29;46.18;96651.13;4950438;29;19967;-84
2021/08/10 11:31:06;;;;;;;;;;;;;;;25.39;46.53;96653.56;4951732;29;19982;-84
2021/08/10 11:33:40;;;;;;;;;;;;;;;25.65;47.89;96647.50;4957626;29;20012;-84
2021/08/10 11:36:12;;;;;;;;;;;;;;;25.69;44.79;96633.13;4937424;29;19983;-84
2021/08/10 11:38:44;;;;;;;;;;;;;;;25.50;45.82;96632.59;4950018;29;19971;-84
2021/08/10 11:41:30;;;;;;;;;;;;;;;25.47;44.74;96631.34;4943158;29;19963;-85
2021/08/10 11:44:00;;;;;;;;;;;;;;;25.56;47.51;96644.00;4951503;29;19971;-84
2021/08/10 11:46:31;;;;;;;;;;;;;;;25.75;49.17;96649.13;4930905;29;19974;-84
2021/08/10 11:48:58;;;;;;;;;;;;;;;25.95;47.31;96637.81;4950420;29;19959;-85
2021/08/10 11:51:25;;;;;;;;;;;;;;;25.95;42.49;96613.63;4931563;29;19971;-85
2021/08/10 11:53:52;;;;;;;;;;;;;;;25.80;43.72;96622.13;4937326;29;19971;-84
2021/08/10 11:56:24;;;;;;;;;;;;;;;25.73;46.42;96634.09;4917371;29;20424;-85
2021/08/10 11:58:51;;;;;;;;;;;;;;;25.66;46.11;96627.59;4929430;29;19967;-84
2021/08/10 12:01:17;;;;;;;;;;;;;;;25.76;46.92;96631.91;4951110;29;20320;-84
2021/08/10 12:03:43;;;;;;;;;;;;;;;26.01;46.71;96630.41;4931453;29;19974;-85
2021/08/10 12:06:10;;;;;;;;;;;;;;;26.20;44.31;96622.06;4944647;29;20407;-86
2021/08/10 12:08:36;;;;;;;;;;;;;;;26.23;42.40;96614.16;4950388;29;19963;-84
2021/08/10 12:11:02;;;;;;;;;;;;;;;26.19;44.19;96629.34;4932327;29;20017;-84
2021/08/10 12:13:29;;;;;;;;;;;;;;;25.93;43.20;96618.53;4923053;29;19975;-87
2021/08/10 12:15:55;;;;;;;;;;;;;;;25.75;44.15;96625.75;4951651;29;19983;-84
2021/08/10 12:18:22;;;;;;;;;;;;;;;25.76;43.55;96616.56;4944400;29;19971;-84
2021/08/10 12:20:56;;;;;;;;;;;;;;;25.84;43.94;96623.84;4938615;29;19967;-85
2021/08/10 12:23:23;;;;;;;;;;;;;;;25.97;43.75;96614.13;4954658;29;19970;-85
2021/08/10 12:25:49;;;;;;;;;;;;;;;26.27;43.66;96609.75;4951483;29;20443;-84
2021/08/10 12:28:15;;;;;;;;;;;;;;;26.33;42.23;96591.53;4936440;29;19975;-85
2021/08/10 12:30:42;;;;;;;;;;;;;;;26.28;43.11;96611.31;4952879;29;20010;-85
2021/08/10 12:33:26;;;;;;;;;;;;;;;26.35;43.71;96615.44;4945452;29;20412;-84
2021/08/10 12:35:55;;;;;;;;;;;;;;;26.45;41.29;96594.38;4950038;29;20466;-84
2021/08/10 12:38:25;;;;;;;;;;;;;;;26.31;43.61;96615.25;4920210;29;20073;-85
2021/08/10 12:40:52;;;;;;;;;;;;;;;26.23;40.71;96608.00;4909815;29;19978;-84
2021/08/10 12:43:19;;;;;;;;;;;;;;;26.09;43.56;96608.13;4937377;29;19968;-85
2021/08/10 12:45:45;;;;;;;;;;;;;;;25.96;42.68;96609.84;4928295;29;19967;-84
2021/08/10 12:48:37;;;;;;;;;;;;;;;25.90;44.04;96609.19;4928268;29;19967;-84
2021/08/10 12:51:04;;;;;;;;;;;;;;;25.85;44.61;96620.09;4948612;29;19963;-84